Time;durP1;ratioP1;P1;durP2;ratioP2;P2;SDS_P1;SDS_P2;PMS_P1;PMS_P2;Temp;Humidity;BMP_temperature;BMP_pressure;BME280_temperature;BME280_humidity;BME280_pressure;Samples;Min_cycle;Max_cycle;Signal;HPM_P1;HPM_P2
2023/10/12 00:00:36;;;;;;;18.75;6.20;;;;;;;;;;6078994;23;20198;-90
2023/10/12 00:03:40;;;;;;;17.30;6.50;;;;;;;;;;6080144;23;20627;-89
2023/10/12 00:06:47;;;;;;;15.52;6.10;;;;;;;;;;6080226;23;20237;-91
2023/10/12 00:10:12;;;;;;;18.52;6.32;;;;;;;;;;6077918;23;20171;-91
2023/10/12 00:13:20;;;;;;;16.15;6.80;;;;;;;;;;6076574;23;20174;-91
2023/10/12 00:16:25;;;;;;;17.98;6.45;;;;;;;;;;6075682;23;20170;-90
2023/10/12 00:19:30;;;;;;;21.23;6.13;;;;;;;;;;6076309;23;20174;-87
2023/10/12 00:22:37;;;;;;;19.67;6.57;;;;;;;;;;6078109;23;20266;-92
2023/10/12 00:25:47;;;;;;;14.40;6.72;;;;;;;;;;6061635;23;20279;-90
2023/10/12 00:28:55;;;;;;;19.40;6.90;;;;;;;;;;6078057;23;20178;-90
2023/10/12 00:32:02;;;;;;;17.35;6.40;;;;;;;;;;6075898;23;20230;-90
2023/10/12 00:35:10;;;;;;;15.38;6.97;;;;;;;;;;6077943;23;20174;-91
2023/10/12 00:38:18;;;;;;;15.80;6.38;;;;;;;;;;6078413;23;20381;-93
2023/10/12 00:41:24;;;;;;;17.40;7.22;;;;;;;;;;6078886;23;20274;-91
2023/10/12 00:44:35;;;;;;;16.00;6.93;;;;;;;;;;6080362;23;20250;-92
2023/10/12 00:47:47;;;;;;;15.05;6.40;;;;;;;;;;6064814;23;20170;-90
2023/10/12 00:50:56;;;;;;;18.02;6.72;;;;;;;;;;6079976;23;20220;-90
2023/10/12 00:54:04;;;;;;;17.50;6.18;;;;;;;;;;6063982;23;20245;-91
2023/10/12 00:57:10;;;;;;;20.60;6.70;;;;;;;;;;6080140;23;20171;-91
2023/10/12 01:00:18;;;;;;;14.27;6.45;;;;;;;;;;6079373;23;20198;-89
2023/10/12 01:03:35;;;;;;;19.92;6.50;;;;;;;;;;6081569;23;20175;-92
2023/10/12 01:06:40;;;;;;;19.98;6.93;;;;;;;;;;6080115;23;20248;-91
2023/10/12 01:09:45;;;;;;;16.30;5.97;;;;;;;;;;6062838;23;20174;-92
2023/10/12 01:12:51;;;;;;;19.02;6.57;;;;;;;;;;6079092;23;20171;-93
2023/10/12 01:15:58;;;;;;;15.95;6.53;;;;;;;;;;6079023;23;20181;-91
2023/10/12 01:19:05;;;;;;;16.13;7.22;;;;;;;;;;6078286;23;20190;-91
2023/10/12 01:22:13;;;;;;;14.70;7.03;;;;;;;;;;6079714;23;20209;-92
2023/10/12 01:25:21;;;;;;;16.13;6.55;;;;;;;;;;6079073;23;20683;-91
2023/10/12 01:28:26;;;;;;;19.25;7.30;;;;;;;;;;6062327;23;20315;-92
2023/10/12 01:31:31;;;;;;;17.48;7.13;;;;;;;;;;6078006;23;20177;-92
2023/10/12 01:34:37;;;;;;;16.55;7.53;;;;;;;;;;6078305;23;20222;-93
2023/10/12 01:37:48;;;;;;;16.88;6.55;;;;;;;;;;6078108;23;20166;-88
2023/10/12 01:40:55;;;;;;;20.55;7.00;;;;;;;;;;6061357;23;20198;-92
2023/10/12 01:44:01;;;;;;;20.60;6.90;;;;;;;;;;6078963;23;20236;-90
2023/10/12 01:47:09;;;;;;;19.13;7.28;;;;;;;;;;6079511;23;20630;-91
2023/10/12 01:50:14;;;;;;;17.60;7.22;;;;;;;;;;6078116;23;20218;-89
2023/10/12 01:53:26;;;;;;;15.95;7.07;;;;;;;;;;6078639;23;20159;-92
2023/10/12 01:56:31;;;;;;;27.85;7.40;;;;;;;;;;6078292;23;20299;-92
2023/10/12 01:59:37;;;;;;;21.30;7.55;;;;;;;;;;6077205;23;20178;-90
2023/10/12 02:02:49;;;;;;;26.02;7.47;;;;;;;;;;6079005;23;20179;-90
2023/10/12 02:05:59;;;;;;;22.40;8.25;;;;;;;;;;6059973;23;20223;-93
2023/10/12 02:09:10;;;;;;;19.05;8.07;;;;;;;;;;6077811;23;20183;-90
2023/10/12 02:12:16;;;;;;;23.23;7.82;;;;;;;;;;6077834;23;20167;-91
2023/10/12 02:15:23;;;;;;;19.83;8.60;;;;;;;;;;6077730;23;20214;-91
2023/10/12 02:18:30;;;;;;;48.25;8.02;;;;;;;;;;6078176;23;20182;-90
2023/10/12 02:21:37;;;;;;;30.88;7.60;;;;;;;;;;6061249;23;20307;-90
2023/10/12 02:24:50;;;;;;;26.45;8.45;;;;;;;;;;6062236;23;20227;-89
2023/10/12 02:27:56;;;;;;;23.85;8.48;;;;;;;;;;6077944;23;20182;-90
2023/10/12 02:31:03;;;;;;;16.52;7.13;;;;;;;;;;6077330;23;20655;-91
2023/10/12 02:34:14;;;;;;;18.30;6.88;;;;;;;;;;6060597;23;20175;-89
2023/10/12 02:37:19;;;;;;;21.38;7.65;;;;;;;;;;6078021;23;20175;-90
2023/10/12 02:40:26;;;;;;;16.83;7.03;;;;;;;;;;6078525;23;20242;-89
2023/10/12 02:43:36;;;;;;;26.40;8.32;;;;;;;;;;6086254;23;20174;-90
2023/10/12 02:46:44;;;;;;;21.17;6.97;;;;;;;;;;6080539;23;20171;-93
2023/10/12 02:49:49;;;;;;;18.50;7.88;;;;;;;;;;6077960;23;20223;-89
2023/10/12 02:52:55;;;;;;;18.75;7.00;;;;;;;;;;6060838;23;20582;-88
2023/10/12 02:56:05;;;;;;;22.77;6.90;;;;;;;;;;6061414;23;20174;-91
2023/10/12 02:59:13;;;;;;;16.80;7.32;;;;;;;;;;6079146;23;20584;-91
2023/10/12 03:02:22;;;;;;;17.25;7.00;;;;;;;;;;6062306;23;20194;-91
2023/10/12 03:05:34;;;;;;;23.38;7.80;;;;;;;;;;6060864;23;20176;-89
2023/10/12 03:09:02;;;;;;;18.85;7.32;;;;;;;;;;6061096;23;20486;-88
2023/10/12 03:12:10;;;;;;;21.52;7.72;;;;;;;;;;6076760;23;20174;-92
2023/10/12 03:15:16;;;;;;;24.02;7.25;;;;;;;;;;6060229;23;20338;-91
2023/10/12 03:18:26;;;;;;;19.38;7.10;;;;;;;;;;6076197;23;20175;-91
2023/10/12 03:21:33;;;;;;;14.27;6.57;;;;;;;;;;6063028;23;20291;-89
2023/10/12 03:24:44;;;;;;;17.45;6.60;;;;;;;;;;6077424;23;20165;-90
2023/10/12 03:27:53;;;;;;;27.80;7.70;;;;;;;;;;6079029;23;20167;-90
2023/10/12 03:31:14;;;;;;;30.08;7.80;;;;;;;;;;6078646;23;20526;-94
2023/10/12 03:34:35;;;;;;;19.17;8.40;;;;;;;;;;6078263;23;20174;-92
2023/10/12 03:38:00;;;;;;;21.30;7.47;;;;;;;;;;6079318;23;20166;-91
2023/10/12 03:44:48;;;;;;;14.80;7.22;;;;;;;;;;6059503;23;20174;-91
2023/10/12 03:48:04;;;;;;;14.68;6.88;;;;;;;;;;6078165;23;20175;-90
2023/10/12 03:51:25;;;;;;;16.88;6.75;;;;;;;;;;6077025;23;20251;-91
2023/10/12 03:54:31;;;;;;;16.65;7.07;;;;;;;;;;6077743;23;20619;-90
2023/10/12 03:57:41;;;;;;;24.15;8.35;;;;;;;;;;6078859;23;20181;-89
2023/10/12 04:01:14;;;;;;;19.58;7.93;;;;;;;;;;6077484;23;20227;-90
2023/10/12 04:04:21;;;;;;;21.10;7.95;;;;;;;;;;6078553;23;20186;-91
2023/10/12 04:07:39;;;;;;;23.08;8.45;;;;;;;;;;6060256;23;20222;-89
2023/10/12 04:17:51;;;;;;;22.17;7.93;;;;;;;;;;6063199;23;20827;-91
2023/10/12 04:20:56;;;;;;;32.47;8.90;;;;;;;;;;6079101;23;20254;-91
2023/10/12 04:31:20;;;;;;;20.75;7.50;;;;;;;;;;6080255;23;20167;-91
2023/10/12 04:34:10;;;;;;;28.63;8.05;;;;;;;;;;6065961;23;20170;-89
2023/10/12 04:37:25;;;;;;;23.00;7.93;;;;;;;;;;6080268;23;20182;-91
2023/10/12 04:40:36;;;;;;;19.80;7.82;;;;;;;;;;6080113;23;20222;-91
2023/10/12 04:43:52;;;;;;;19.35;7.13;;;;;;;;;;6079019;23;20234;-93
2023/10/12 04:46:59;;;;;;;17.95;7.70;;;;;;;;;;6081235;23;20171;-91
2023/10/12 04:50:07;;;;;;;21.15;7.53;;;;;;;;;;6079700;23;20170;-91
2023/10/12 04:53:14;;;;;;;19.08;8.63;;;;;;;;;;6081605;23;20225;-92
2023/10/12 04:56:19;;;;;;;21.95;8.65;;;;;;;;;;6062671;23;20178;-91
2023/10/12 04:59:28;;;;;;;28.55;9.43;;;;;;;;;;6078889;23;20195;-92
2023/10/12 05:02:43;;;;;;;34.50;9.77;;;;;;;;;;6081456;23;20208;-89
2023/10/12 05:06:08;;;;;;;30.05;9.82;;;;;;;;;;6061846;23;20262;-89
2023/10/12 05:09:18;;;;;;;23.52;8.10;;;;;;;;;;6064752;23;20215;-89
2023/10/12 05:12:24;;;;;;;27.05;8.70;;;;;;;;;;6067156;23;20193;-89
2023/10/12 05:15:39;;;;;;;29.40;9.57;;;;;;;;;;6081838;23;20177;-90
2023/10/12 05:18:50;;;;;;;24.98;9.35;;;;;;;;;;6084002;23;20187;-92
2023/10/12 05:21:58;;;;;;;27.35;9.45;;;;;;;;;;6079401;23;20170;-90
2023/10/12 05:25:04;;;;;;;23.58;9.70;;;;;;;;;;6081288;23;20178;-92
2023/10/12 05:28:14;;;;;;;25.35;9.90;;;;;;;;;;6079864;23;20191;-92
2023/10/12 05:34:52;;;;;;;24.90;9.90;;;;;;;;;;6066865;23;20174;-89
2023/10/12 05:37:59;;;;;;;24.25;9.18;;;;;;;;;;6066867;23;20193;-89
2023/10/12 05:41:10;;;;;;;21.25;9.50;;;;;;;;;;6082330;23;20186;-91
2023/10/12 05:44:17;;;;;;;21.15;8.60;;;;;;;;;;6084681;23;20230;-89
2023/10/12 05:47:28;;;;;;;25.13;8.80;;;;;;;;;;6067313;23;20177;-88
2023/10/12 05:50:35;;;;;;;20.20;7.90;;;;;;;;;;6065469;23;20178;-90
2023/10/12 05:53:44;;;;;;;16.98;8.32;;;;;;;;;;6081521;23;20195;-91
2023/10/12 05:56:51;;;;;;;19.52;8.20;;;;;;;;;;6085893;23;20170;-91
2023/10/12 05:59:58;;;;;;;25.13;8.10;;;;;;;;;;6083082;23;20199;-92
2023/10/12 06:03:04;;;;;;;19.15;7.68;;;;;;;;;;6084445;23;20173;-90
2023/10/12 06:06:10;;;;;;;20.05;8.27;;;;;;;;;;6083534;23;20187;-91
2023/10/12 06:09:23;;;;;;;17.63;7.38;;;;;;;;;;6084020;23;20247;-89
2023/10/12 06:12:29;;;;;;;17.50;7.20;;;;;;;;;;6080949;23;20206;-91
2023/10/12 06:15:40;;;;;;;22.27;7.95;;;;;;;;;;6079881;23;20174;-91
2023/10/12 06:18:45;;;;;;;18.80;7.13;;;;;;;;;;6079631;23;20175;-89
2023/10/12 06:21:51;;;;;;;15.43;7.28;;;;;;;;;;6079524;23;20193;-91
2023/10/12 06:24:59;;;;;;;13.55;7.15;;;;;;;;;;6079590;23;20202;-93
2023/10/12 06:28:07;;;;;;;21.42;7.45;;;;;;;;;;6079569;23;20171;-92
2023/10/12 06:31:14;;;;;;;17.75;8.07;;;;;;;;;;6063446;23;20174;-92
2023/10/12 06:34:19;;;;;;;18.92;8.38;;;;;;;;;;6063301;23;20295;-90
2023/10/12 06:37:49;;;;;;;16.17;7.70;;;;;;;;;;6081080;23;20190;-89
2023/10/12 06:41:26;;;;;;;16.35;7.68;;;;;;;;;;6081919;23;20242;-91
2023/10/12 06:44:27;;;;;;;15.23;7.88;;;;;;;;;;6063822;23;20615;-92
2023/10/12 06:47:42;;;;;;;20.60;7.53;;;;;;;;;;6062850;23;20221;-93
2023/10/12 06:50:48;;;;;;;25.52;8.23;;;;;;;;;;6064406;23;20219;-91
2023/10/12 06:54:05;;;;;;;17.17;7.55;;;;;;;;;;6064667;23;20170;-91
2023/10/12 07:00:59;;;;;;;13.68;6.82;;;;;;;;;;6067106;23;20174;-90
2023/10/12 07:04:06;;;;;;;16.90;7.60;;;;;;;;;;6067257;23;20204;-89
2023/10/12 07:07:15;;;;;;;13.02;7.35;;;;;;;;;;6081265;23;20174;-92
2023/10/12 07:10:28;;;;;;;13.63;6.97;;;;;;;;;;6082199;23;20179;-88
2023/10/12 07:13:39;;;;;;;16.20;7.05;;;;;;;;;;6081296;23;20198;-90
2023/10/12 07:16:54;;;;;;;11.63;6.07;;;;;;;;;;6067079;23;20652;-91
2023/10/12 07:19:59;;;;;;;13.90;5.72;;;;;;;;;;6067608;23;20170;-91
2023/10/12 07:23:14;;;;;;;13.40;6.25;;;;;;;;;;6086469;23;20219;-91
2023/10/12 07:26:22;;;;;;;14.27;6.38;;;;;;;;;;6082663;23;20171;-91
2023/10/12 07:29:37;;;;;;;11.45;6.40;;;;;;;;;;6067521;23;20174;-90
2023/10/12 07:32:54;;;;;;;14.57;6.72;;;;;;;;;;6082081;23;20279;-90
2023/10/12 07:36:11;;;;;;;12.65;6.43;;;;;;;;;;6082160;23;20270;-90
2023/10/12 07:39:19;;;;;;;12.02;5.72;;;;;;;;;;6084784;23;20319;-91
2023/10/12 07:42:27;;;;;;;15.20;6.10;;;;;;;;;;6084888;23;20488;-92
2023/10/12 07:45:38;;;;;;;17.52;6.25;;;;;;;;;;6081715;23;20623;-93
2023/10/12 07:48:46;;;;;;;12.90;6.55;;;;;;;;;;6068797;23;20180;-92
2023/10/12 07:51:59;;;;;;;17.67;6.57;;;;;;;;;;6082919;23;20250;-89
2023/10/12 07:55:07;;;;;;;14.50;6.13;;;;;;;;;;6085385;23;20231;-91
2023/10/12 07:58:14;;;;;;;12.48;6.93;;;;;;;;;;6086653;23;20214;-91
2023/10/12 08:01:39;;;;;;;13.15;5.88;;;;;;;;;;6069176;23;20246;-90
2023/10/12 08:04:58;;;;;;;14.57;5.75;;;;;;;;;;6082932;23;20174;-91
2023/10/12 08:08:09;;;;;;;11.45;5.93;;;;;;;;;;6068356;23;20174;-89
2023/10/12 08:11:31;;;;;;;10.57;5.68;;;;;;;;;;6087216;23;20178;-91
2023/10/12 08:14:41;;;;;;;15.35;5.35;;;;;;;;;;6084941;23;20211;-90
2023/10/12 08:18:08;;;;;;;16.48;6.25;;;;;;;;;;6087159;23;20209;-92
2023/10/12 08:21:23;;;;;;;18.65;6.28;;;;;;;;;;6083524;23;20174;-89
2023/10/12 08:24:35;;;;;;;12.20;5.45;;;;;;;;;;6084142;23;20163;-90
2023/10/12 08:27:52;;;;;;;18.25;7.40;;;;;;;;;;6067284;23;20178;-92
2023/10/12 08:31:00;;;;;;;10.57;5.75;;;;;;;;;;6082792;23;20195;-88
2023/10/12 08:34:41;;;;;;;10.13;6.00;;;;;;;;;;6085840;23;20224;-93
2023/10/12 08:41:20;;;;;;;12.23;5.90;;;;;;;;;;6069046;23;20259;-88
2023/10/12 08:44:25;;;;;;;10.90;6.03;;;;;;;;;;6084925;23;20158;-95
2023/10/12 08:47:44;;;;;;;22.17;7.45;;;;;;;;;;6083635;23;20170;-92
2023/10/12 08:50:58;;;;;;;13.05;7.38;;;;;;;;;;6083899;23;20183;-90
2023/10/12 08:54:07;;;;;;;18.88;8.75;;;;;;;;;;6078942;23;20209;-92
2023/10/12 08:57:17;;;;;;;17.98;9.63;;;;;;;;;;6083925;23;20170;-90
2023/10/12 09:00:39;;;;;;;21.90;10.38;;;;;;;;;;6086867;23;20204;-90
2023/10/12 09:03:45;;;;;;;23.95;10.75;;;;;;;;;;6086789;23;20178;-92
2023/10/12 09:06:56;;;;;;;22.45;10.75;;;;;;;;;;6065971;23;20170;-89
2023/10/12 09:10:03;;;;;;;20.38;10.23;;;;;;;;;;6082985;23;20166;-91
2023/10/12 09:13:10;;;;;;;18.65;10.07;;;;;;;;;;6084712;23;20201;-92
2023/10/12 09:16:17;;;;;;;18.60;8.32;;;;;;;;;;6085252;23;20178;-92
2023/10/12 09:19:28;;;;;;;19.95;8.40;;;;;;;;;;6086131;23;20606;-91
2023/10/12 09:22:38;;;;;;;20.02;7.93;;;;;;;;;;6084081;23;20167;-91
2023/10/12 09:26:14;;;;;;;17.67;6.97;;;;;;;;;;6085303;23;20218;-91
2023/10/12 09:29:23;;;;;;;14.77;6.75;;;;;;;;;;6067078;23;20170;-92
2023/10/12 09:32:32;;;;;;;15.77;6.68;;;;;;;;;;6065325;23;20199;-90
2023/10/12 09:35:40;;;;;;;16.45;7.88;;;;;;;;;;6081539;23;20211;-89
2023/10/12 09:38:47;;;;;;;14.05;5.95;;;;;;;;;;6064888;23;20170;-92
2023/10/12 09:41:59;;;;;;;13.07;5.93;;;;;;;;;;6080385;23;20619;-93
2023/10/12 09:45:10;;;;;;;14.63;5.50;;;;;;;;;;6084891;23;20179;-91
2023/10/12 09:48:24;;;;;;;13.68;5.50;;;;;;;;;;6080182;23;20199;-94
2023/10/12 09:51:35;;;;;;;20.27;5.78;;;;;;;;;;6082800;23;20179;-90
2023/10/12 09:54:47;;;;;;;15.13;5.90;;;;;;;;;;6083678;23;20185;-92
2023/10/12 09:57:53;;;;;;;13.95;5.60;;;;;;;;;;6081938;23;20170;-93
2023/10/12 10:01:01;;;;;;;11.85;5.47;;;;;;;;;;6084377;23;20174;-93
2023/10/12 10:04:27;;;;;;;15.73;5.80;;;;;;;;;;6084299;23;20178;-94
2023/10/12 10:07:36;;;;;;;15.68;6.13;;;;;;;;;;6066738;23;20196;-93
2023/10/12 10:10:45;;;;;;;10.35;5.10;;;;;;;;;;6084375;23;20194;-92
2023/10/12 10:13:53;;;;;;;15.25;6.07;;;;;;;;;;6084679;23;20194;-93
2023/10/12 10:17:02;;;;;;;11.98;5.93;;;;;;;;;;6082965;23;20171;-92
2023/10/12 10:20:34;;;;;;;10.38;4.68;;;;;;;;;;6085328;23;20178;-92
2023/10/12 10:23:48;;;;;;;16.08;5.32;;;;;;;;;;6064967;23;20178;-89
2023/10/12 10:26:58;;;;;;;10.80;4.70;;;;;;;;;;6066674;23;20224;-93
2023/10/12 10:30:24;;;;;;;15.57;5.05;;;;;;;;;;6081385;23;20178;-91
2023/10/12 10:33:30;;;;;;;11.85;4.60;;;;;;;;;;6083964;23;20332;-89
2023/10/12 10:36:36;;;;;;;11.05;4.10;;;;;;;;;;6064931;23;20248;-89
2023/10/12 10:39:43;;;;;;;13.13;4.07;;;;;;;;;;6081057;23;20175;-92
2023/10/12 10:43:04;;;;;;;8.80;3.70;;;;;;;;;;6078748;23;20486;-91
2023/10/12 10:46:10;;;;;;;11.13;4.00;;;;;;;;;;6079468;23;20187;-92
2023/10/12 10:49:16;;;;;;;12.10;4.95;;;;;;;;;;6077518;23;20171;-93
2023/10/12 10:52:24;;;;;;;11.65;4.20;;;;;;;;;;6079962;23;20178;-91
2023/10/12 10:55:35;;;;;;;9.65;3.60;;;;;;;;;;6078876;23;20170;-92
2023/10/12 10:58:45;;;;;;;10.40;3.42;;;;;;;;;;6079784;23;20174;-93
2023/10/12 11:01:52;;;;;;;9.55;3.28;;;;;;;;;;6080004;23;20211;-93
2023/10/12 11:05:09;;;;;;;14.02;4.10;;;;;;;;;;6063637;23;20166;-91
2023/10/12 11:08:26;;;;;;;11.98;4.22;;;;;;;;;;6079770;23;20187;-90
2023/10/12 11:11:38;;;;;;;11.45;4.22;;;;;;;;;;6080298;23;20171;-91
2023/10/12 11:14:52;;;;;;;14.30;4.13;;;;;;;;;;6079887;23;20499;-92
2023/10/12 11:17:59;;;;;;;13.43;4.32;;;;;;;;;;6060459;23;20171;-93
2023/10/12 11:21:11;;;;;;;9.77;3.88;;;;;;;;;;6076559;23;20650;-92
2023/10/12 11:24:17;;;;;;;10.32;4.03;;;;;;;;;;6079273;23;20178;-92
2023/10/12 11:27:32;;;;;;;15.52;4.50;;;;;;;;;;6078543;23;20174;-94
2023/10/12 11:30:42;;;;;;;11.80;4.28;;;;;;;;;;6065187;23;20166;-92
2023/10/12 11:33:49;;;;;;;14.50;4.22;;;;;;;;;;6063531;23;20310;-94
2023/10/12 11:36:58;;;;;;;11.38;4.22;;;;;;;;;;6079777;23;20170;-94
2023/10/12 11:40:06;;;;;;;9.15;3.95;;;;;;;;;;6053929;23;20198;-90
2023/10/12 11:43:12;;;;;;;11.35;3.63;;;;;;;;;;6080295;23;20175;-92
2023/10/12 11:46:18;;;;;;;11.55;3.60;;;;;;;;;;6080979;23;20153;-92
2023/10/12 11:49:23;;;;;;;12.25;3.55;;;;;;;;;;6080881;23;20215;-93
2023/10/12 11:52:32;;;;;;;14.27;3.83;;;;;;;;;;6082752;23;20179;-92
2023/10/12 11:55:40;;;;;;;15.73;4.03;;;;;;;;;;6077380;23;20247;-91
2023/10/12 11:58:48;;;;;;;14.90;4.45;;;;;;;;;;6078409;23;20175;-92
2023/10/12 12:01:57;;;;;;;15.63;4.47;;;;;;;;;;6078825;23;20179;-93
2023/10/12 12:05:04;;;;;;;11.38;4.20;;;;;;;;;;6078349;23;20187;-93
2023/10/12 12:08:14;;;;;;;11.13;3.83;;;;;;;;;;6081556;23;20226;-93
2023/10/12 12:11:26;;;;;;;11.52;3.78;;;;;;;;;;6063936;23;20171;-93
2023/10/12 12:14:32;;;;;;;13.13;3.95;;;;;;;;;;6081411;23;20214;-94
2023/10/12 12:17:39;;;;;;;13.05;3.90;;;;;;;;;;6062981;23;20306;-92
2023/10/12 12:20:44;;;;;;;10.88;3.83;;;;;;;;;;6079123;23;20203;-92
2023/10/12 12:23:53;;;;;;;12.38;4.15;;;;;;;;;;6078975;23;20249;-94
2023/10/12 12:26:58;;;;;;;13.68;3.92;;;;;;;;;;6077720;23;20230;-92
2023/10/12 12:30:22;;;;;;;12.27;4.43;;;;;;;;;;6079760;23;20214;-92
2023/10/12 12:33:29;;;;;;;10.70;3.60;;;;;;;;;;6084017;23;20198;-93
2023/10/12 12:36:38;;;;;;;12.05;4.70;;;;;;;;;;6081798;23;20209;-91
2023/10/12 12:39:53;;;;;;;29.17;5.15;;;;;;;;;;6083270;23;20238;-91
2023/10/12 12:43:00;;;;;;;10.93;4.40;;;;;;;;;;6081602;23;20155;-91
2023/10/12 12:46:06;;;;;;;15.25;4.40;;;;;;;;;;6081830;23;20319;-91
2023/10/12 12:49:13;;;;;;;11.50;4.43;;;;;;;;;;6064270;23;20174;-90
2023/10/12 12:52:19;;;;;;;15.05;4.35;;;;;;;;;;6080513;23;20175;-93
2023/10/12 12:55:27;;;;;;;10.32;4.45;;;;;;;;;;6062716;23;20205;-92
2023/10/12 12:58:36;;;;;;;12.63;4.70;;;;;;;;;;6063235;23;20166;-93
2023/10/12 13:01:42;;;;;;;10.85;4.30;;;;;;;;;;6080859;23;20174;-91
2023/10/12 13:04:49;;;;;;;16.75;4.25;;;;;;;;;;6064854;23;20193;-94
2023/10/12 13:07:54;;;;;;;10.60;3.50;;;;;;;;;;6081200;23;20309;-91
2023/10/12 13:11:00;;;;;;;15.48;5.05;;;;;;;;;;6077588;23;20614;-90
2023/10/12 13:14:08;;;;;;;8.52;4.10;;;;;;;;;;6081044;23;20689;-93
2023/10/12 13:17:16;;;;;;;12.50;4.32;;;;;;;;;;6079886;23;20175;-89
2023/10/12 13:20:28;;;;;;;11.27;4.10;;;;;;;;;;6084650;23;20179;-90
2023/10/12 13:23:36;;;;;;;15.60;5.18;;;;;;;;;;6085762;23;20178;-92
2023/10/12 13:26:44;;;;;;;12.73;4.85;;;;;;;;;;6052630;23;20158;-90
2023/10/12 13:29:49;;;;;;;9.85;4.07;;;;;;;;;;6084125;23;20178;-94
2023/10/12 13:32:59;;;;;;;12.45;4.78;;;;;;;;;;6063505;23;20175;-93
2023/10/12 13:36:08;;;;;;;27.65;6.75;;;;;;;;;;6087569;23;20154;-93
2023/10/12 13:39:13;;;;;;;24.45;6.95;;;;;;;;;;6083830;23;20317;-90
2023/10/12 13:42:18;;;;;;;11.30;4.47;;;;;;;;;;6084651;23;20219;-91
2023/10/12 13:45:28;;;;;;;13.15;4.22;;;;;;;;;;6085332;23;20170;-92
2023/10/12 13:48:37;;;;;;;23.98;4.93;;;;;;;;;;6086898;23;20192;-93
2023/10/12 13:51:47;;;;;;;13.18;4.88;;;;;;;;;;6084670;23;20262;-92
2023/10/12 13:54:57;;;;;;;19.70;4.70;;;;;;;;;;6083716;23;20190;-92
2023/10/12 13:58:03;;;;;;;18.17;4.63;;;;;;;;;;6073522;23;20154;-92
2023/10/12 14:01:15;;;;;;;15.57;5.05;;;;;;;;;;6086093;23;20193;-93
2023/10/12 14:07:41;;;;;;;12.90;3.97;;;;;;;;;;6066028;23;20167;-91
2023/10/12 14:10:46;;;;;;;14.85;4.78;;;;;;;;;;6084654;23;20211;-91
2023/10/12 14:13:52;;;;;;;16.27;4.40;;;;;;;;;;6065049;23;20202;-91
2023/10/12 14:16:57;;;;;;;13.57;4.70;;;;;;;;;;6082367;23;20283;-93
2023/10/12 14:20:03;;;;;;;14.07;4.05;;;;;;;;;;6063375;23;20174;-92
2023/10/12 14:23:12;;;;;;;15.00;4.60;;;;;;;;;;6087071;23;20171;-93
2023/10/12 14:26:18;;;;;;;13.05;4.57;;;;;;;;;;6085053;23;20179;-90
2023/10/12 14:29:25;;;;;;;15.13;4.60;;;;;;;;;;6083410;23;20242;-91
2023/10/12 14:32:30;;;;;;;10.75;4.20;;;;;;;;;;6067245;23;20161;-92
2023/10/12 14:35:37;;;;;;;14.65;4.40;;;;;;;;;;6081218;23;20182;-92
2023/10/12 14:38:46;;;;;;;16.75;4.85;;;;;;;;;;6085304;23;20182;-91
2023/10/12 14:41:51;;;;;;;14.23;4.50;;;;;;;;;;6083829;23;20182;-92
2023/10/12 14:44:58;;;;;;;10.07;4.20;;;;;;;;;;6087028;23;20198;-93
2023/10/12 14:48:09;;;;;;;9.50;4.28;;;;;;;;;;6068391;23;20154;-92
2023/10/12 14:51:14;;;;;;;12.38;4.38;;;;;;;;;;6070222;23;20179;-91
2023/10/12 14:54:27;;;;;;;15.38;4.75;;;;;;;;;;6086592;23;20211;-91
2023/10/12 14:57:33;;;;;;;11.90;4.32;;;;;;;;;;6071045;23;20191;-92
2023/10/12 15:00:43;;;;;;;13.18;4.60;;;;;;;;;;6085096;23;20169;-92
2023/10/12 15:10:52;;;;;;;16.13;4.90;;;;;;;;;;6072907;23;20185;-94
2023/10/12 15:14:00;;;;;;;13.82;4.78;;;;;;;;;;6090116;23;20175;-91
2023/10/12 15:17:06;;;;;;;12.32;4.55;;;;;;;;;;6087887;23;20218;-92
2023/10/12 15:20:18;;;;;;;21.23;9.38;;;;;;;;;;6073815;23;20178;-92
2023/10/12 15:23:27;;;;;;;92.93;45.92;;;;;;;;;;6090787;23;20162;-90
2023/10/12 15:26:36;;;;;;;55.53;23.92;;;;;;;;;;6089781;23;20219;-93
2023/10/12 15:29:48;;;;;;;37.47;18.00;;;;;;;;;;6089087;23;20236;-91
2023/10/12 15:36:19;;;;;;;12.15;7.15;;;;;;;;;;6073091;23;20154;-94
2023/10/12 15:39:32;;;;;;;20.10;5.68;;;;;;;;;;6074629;23;20271;-90
2023/10/12 15:45:58;;;;;;;14.68;5.28;;;;;;;;;;6068476;23;20159;-92
2023/10/12 15:49:03;;;;;;;14.65;5.30;;;;;;;;;;6084782;23;20250;-91
2023/10/12 15:52:09;;;;;;;13.88;4.90;;;;;;;;;;6084535;23;20179;-90
2023/10/12 15:55:18;;;;;;;15.68;5.28;;;;;;;;;;6084913;23;20223;-93
2023/10/12 15:58:32;;;;;;;17.65;5.93;;;;;;;;;;6091268;23;20178;-91
2023/10/12 16:01:42;;;;;;;18.48;7.57;;;;;;;;;;6087101;23;20261;-92
2023/10/12 16:04:49;;;;;;;16.33;8.23;;;;;;;;;;6069323;23;20314;-91
2023/10/12 16:07:55;;;;;;;16.90;6.22;;;;;;;;;;6087836;23;20178;-91
2023/10/12 16:11:05;;;;;;;13.77;5.63;;;;;;;;;;6066262;23;20476;-90
2023/10/12 16:14:12;;;;;;;19.00;6.07;;;;;;;;;;6086404;23;20174;-89
2023/10/12 16:17:21;;;;;;;13.77;5.35;;;;;;;;;;6084961;23;20655;-92
2023/10/12 16:20:28;;;;;;;18.65;7.07;;;;;;;;;;6084665;23;20158;-93
2023/10/12 16:23:33;;;;;;;15.30;6.40;;;;;;;;;;6083126;23;20242;-94
2023/10/12 16:26:38;;;;;;;16.05;7.40;;;;;;;;;;6084198;23;20233;-91
2023/10/12 16:29:44;;;;;;;24.75;8.63;;;;;;;;;;6065087;23;20219;-91
2023/10/12 16:32:54;;;;;;;22.52;10.30;;;;;;;;;;6081189;23;20179;-91
2023/10/12 16:39:18;;;;;;;16.35;7.32;;;;;;;;;;6064355;23;20206;-88
2023/10/12 16:42:25;;;;;;;16.30;6.70;;;;;;;;;;6080798;23;20260;-92
2023/10/12 16:45:30;;;;;;;25.17;8.82;;;;;;;;;;6080933;23;20242;-93
2023/10/12 16:48:37;;;;;;;29.05;9.73;;;;;;;;;;6080601;23;20630;-94
2023/10/12 16:51:42;;;;;;;28.48;10.52;;;;;;;;;;6079457;23;20171;-92
2023/10/12 16:54:48;;;;;;;21.42;7.05;;;;;;;;;;6079880;23;20269;-92
2023/10/12 16:57:55;;;;;;;23.27;8.38;;;;;;;;;;6066123;23;20198;-90
2023/10/12 17:01:00;;;;;;;29.17;9.13;;;;;;;;;;6064569;23;20174;-91
2023/10/12 17:04:14;;;;;;;21.60;7.70;;;;;;;;;;6081768;23;20219;-93
2023/10/12 17:07:23;;;;;;;22.00;9.35;;;;;;;;;;6063600;23;20175;-91
2023/10/12 17:10:30;;;;;;;21.65;7.90;;;;;;;;;;6081784;23;20174;-90
2023/10/12 17:13:35;;;;;;;21.08;9.30;;;;;;;;;;6082648;23;20167;-90
2023/10/12 17:16:40;;;;;;;16.52;8.45;;;;;;;;;;6080555;23;20178;-90
2023/10/12 17:19:46;;;;;;;13.38;6.72;;;;;;;;;;6080304;23;20300;-92
2023/10/12 17:22:52;;;;;;;19.83;7.05;;;;;;;;;;6081107;23;20302;-92
2023/10/12 17:25:58;;;;;;;50.42;22.70;;;;;;;;;;6079769;23;20202;-91
2023/10/12 17:29:04;;;;;;;19.58;10.00;;;;;;;;;;6078823;23;20167;-93
2023/10/12 17:32:11;;;;;;;18.58;7.90;;;;;;;;;;6079618;23;20221;-91
2023/10/12 17:35:17;;;;;;;20.08;9.90;;;;;;;;;;6062927;23;20175;-93
2023/10/12 17:38:22;;;;;;;24.63;10.63;;;;;;;;;;6078592;23;20177;-91
2023/10/12 17:41:28;;;;;;;22.83;11.27;;;;;;;;;;6080939;23;20218;-92
2023/10/12 17:44:36;;;;;;;19.02;8.40;;;;;;;;;;6084281;23;20194;-90
2023/10/12 17:47:46;;;;;;;16.05;7.30;;;;;;;;;;6064967;23;20688;-93
2023/10/12 17:50:52;;;;;;;19.13;7.30;;;;;;;;;;6066244;23;20215;-90
2023/10/12 17:53:58;;;;;;;17.52;7.60;;;;;;;;;;6082900;23;20726;-89
2023/10/12 17:57:04;;;;;;;19.35;7.03;;;;;;;;;;6065132;23;20150;-91
2023/10/12 18:00:10;;;;;;;16.42;7.63;;;;;;;;;;6080362;23;20170;-91
2023/10/12 18:03:15;;;;;;;18.95;7.60;;;;;;;;;;6082316;23;20502;-91
2023/10/12 18:06:23;;;;;;;21.67;8.10;;;;;;;;;;6066098;23;20207;-91
2023/10/12 18:09:28;;;;;;;17.55;8.63;;;;;;;;;;6082158;23;20287;-90
2023/10/12 18:12:33;;;;;;;25.00;8.77;;;;;;;;;;6084076;23;20170;-90
2023/10/12 18:15:38;;;;;;;17.08;8.02;;;;;;;;;;6083348;23;20177;-92
2023/10/12 18:18:44;;;;;;;25.92;8.93;;;;;;;;;;6066823;23;20158;-94
2023/10/12 18:21:52;;;;;;;20.98;9.63;;;;;;;;;;6085740;23;20196;-92
2023/10/12 18:25:07;;;;;;;18.40;8.45;;;;;;;;;;6067621;23;20214;-92
2023/10/12 18:28:16;;;;;;;28.80;10.13;;;;;;;;;;6083016;23;20206;-88
2023/10/12 18:31:22;;;;;;;32.13;10.77;;;;;;;;;;6084304;23;20174;-93
2023/10/12 18:34:27;;;;;;;24.35;10.70;;;;;;;;;;6068869;23;20174;-90
2023/10/12 18:37:35;;;;;;;26.40;11.30;;;;;;;;;;6084364;23;20235;-90
2023/10/12 18:40:41;;;;;;;33.45;13.40;;;;;;;;;;6083888;23;20170;-92
2023/10/12 18:43:48;;;;;;;35.30;11.90;;;;;;;;;;6082453;23;20237;-92
2023/10/12 18:46:53;;;;;;;21.42;9.07;;;;;;;;;;6083402;23;20178;-93
2023/10/12 18:50:01;;;;;;;21.00;8.20;;;;;;;;;;6082779;23;20196;-91
2023/10/12 18:53:08;;;;;;;25.58;10.77;;;;;;;;;;6083793;23;20218;-90
2023/10/12 18:56:14;;;;;;;33.60;12.38;;;;;;;;;;6084102;23;20179;-91
2023/10/12 18:59:20;;;;;;;32.38;13.57;;;;;;;;;;6084411;23;20174;-89
2023/10/12 19:02:25;;;;;;;33.33;15.15;;;;;;;;;;6083025;23;20623;-91
2023/10/12 19:05:30;;;;;;;33.50;14.90;;;;;;;;;;6082445;23;20263;-93
2023/10/12 19:08:37;;;;;;;28.35;12.90;;;;;;;;;;6084032;23;20244;-92
2023/10/12 19:11:45;;;;;;;25.52;11.10;;;;;;;;;;6086041;23;20211;-90
2023/10/12 19:14:52;;;;;;;22.25;9.98;;;;;;;;;;6087601;23;20239;-92
2023/10/12 19:17:57;;;;;;;22.27;9.70;;;;;;;;;;6088313;23;20214;-90
2023/10/12 19:21:03;;;;;;;23.50;10.18;;;;;;;;;;6087742;23;20180;-92
2023/10/12 19:24:12;;;;;;;23.25;9.90;;;;;;;;;;6068785;23;20178;-90